createdAt,value
2018-06-01T00:00:06.769Z,1.20
2018-06-01T00:02:34.731Z,1.37
2018-06-01T00:05:02.261Z,1.40
2018-06-01T00:07:30.559Z,1.40
2018-06-01T00:09:58.063Z,1.53
2018-06-01T00:12:27.110Z,1.70
2018-06-01T00:14:54.632Z,1.20
2018-06-01T00:17:22.155Z,1.70
2018-06-01T00:19:49.646Z,1.13
2018-06-01T00:22:17.163Z,1.67
2018-06-01T00:24:44.707Z,1.33
2018-06-01T00:27:12.218Z,1.30
2018-06-01T00:29:40.517Z,1.33
2018-06-01T00:32:08.033Z,1.70
2018-06-01T00:34:37.507Z,1.53
2018-06-01T00:37:05.023Z,1.50
2018-06-01T00:39:33.291Z,1.57
2018-06-01T00:42:00.806Z,1.23
2018-06-01T00:44:28.310Z,1.23
2018-06-01T00:46:56.616Z,1.50
2018-06-01T00:49:24.130Z,1.30
2018-06-01T00:51:51.655Z,1.20
2018-06-01T00:54:20.106Z,1.23
2018-06-01T00:56:47.638Z,1.27
2018-06-01T00:59:15.947Z,1.43
2018-06-01T01:01:43.452Z,1.13
2018-06-01T01:04:10.963Z,1.07
2018-06-01T01:06:39.431Z,1.40
2018-06-01T01:09:06.959Z,1.57
2018-06-01T01:11:35.283Z,1.40
2018-06-01T01:14:03.755Z,1.57
2018-06-01T01:16:31.279Z,1.27
2018-06-01T01:18:59.550Z,1.20
2018-06-01T01:21:27.831Z,1.60
2018-06-01T01:23:56.114Z,1.50
2018-06-01T01:26:23.671Z,1.43
2018-06-01T01:28:52.907Z,1.67
2018-06-01T01:31:20.440Z,1.77
2018-06-01T01:33:47.936Z,1.30
2018-06-01T01:36:15.431Z,1.70
2018-06-01T01:38:43.728Z,1.23
2018-06-01T01:41:11.247Z,1.50
2018-06-01T01:43:38.776Z,1.20
2018-06-01T01:46:06.297Z,1.50
2018-06-01T01:48:33.819Z,1.27
2018-06-01T01:51:01.320Z,1.30
2018-06-01T01:53:28.828Z,1.20
2018-06-01T01:55:56.364Z,1.77
2018-06-01T01:58:24.804Z,1.50
2018-06-01T02:00:52.323Z,1.80
2018-06-01T02:03:19.819Z,1.43
2018-06-01T02:05:49.320Z,1.47
2018-06-01T02:08:16.828Z,1.30
2018-06-01T02:10:44.334Z,1.93
2018-06-01T02:13:11.871Z,1.77
2018-06-01T02:15:40.147Z,1.67
2018-06-01T02:18:08.447Z,1.20
2018-06-01T02:20:35.944Z,1.43
2018-06-01T02:23:03.472Z,1.50
2018-06-01T02:25:31.032Z,1.80
2018-06-01T02:27:58.526Z,1.27
2018-06-01T02:30:27.576Z,1.23
2018-06-01T02:32:55.076Z,1.43
2018-06-01T02:35:23.375Z,1.50
2018-06-01T02:37:51.652Z,1.80
2018-06-01T02:40:21.897Z,1.93
2018-06-01T02:42:49.404Z,1.60
2018-06-01T02:45:16.932Z,1.37
2018-06-01T02:47:44.432Z,2.20
2018-06-01T02:50:11.924Z,1.70
2018-06-01T02:52:39.464Z,2.03
2018-06-01T02:55:07.736Z,1.60
2018-06-01T02:57:36.022Z,1.50
2018-06-01T03:00:04.310Z,1.10
2018-06-01T03:02:31.855Z,1.30
2018-06-01T03:05:00.131Z,1.57
2018-06-01T03:07:27.645Z,1.60
2018-06-01T03:09:55.180Z,1.50
2018-06-01T03:12:22.680Z,1.67
2018-06-01T03:14:50.207Z,1.50
2018-06-01T03:17:17.700Z,1.63
2018-06-01T03:19:45.996Z,1.30
2018-06-01T03:22:13.506Z,1.60
2018-06-01T03:24:41.010Z,1.30
2018-06-01T03:27:09.505Z,1.77
2018-06-01T03:29:37.007Z,1.90
2018-06-01T03:32:04.537Z,1.63
2018-06-01T03:34:32.051Z,1.80
2018-06-01T03:37:00.345Z,1.57
2018-06-01T03:39:27.844Z,1.90
2018-06-01T03:41:55.361Z,2.17
2018-06-01T03:44:22.904Z,1.40
2018-06-01T03:46:50.417Z,1.70
2018-06-01T03:49:17.946Z,2.37
2018-06-01T03:51:46.371Z,2.10
2018-06-01T03:54:14.656Z,1.90
2018-06-01T03:56:42.939Z,1.47
2018-06-01T03:59:11.234Z,2.10
2018-06-01T04:01:38.802Z,2.40
2018-06-01T04:04:06.304Z,1.90
2018-06-01T04:06:33.827Z,2.17
2018-06-01T04:09:01.327Z,2.43
2018-06-01T04:11:29.619Z,2.00
2018-06-01T04:13:57.900Z,2.47
2018-06-01T04:16:26.199Z,2.80
2018-06-01T04:18:53.700Z,2.40
2018-06-01T04:21:21.220Z,3.23
2018-06-01T04:23:48.787Z,2.40
2018-06-01T04:26:16.286Z,2.60
2018-06-01T04:28:44.601Z,2.70
2018-06-01T04:31:12.103Z,3.00
2018-06-01T04:33:39.631Z,2.90
2018-06-01T04:36:07.124Z,3.00
2018-06-01T04:38:38.116Z,3.17
2018-06-01T04:41:05.647Z,2.63
2018-06-01T04:43:33.941Z,3.40
2018-06-01T04:46:01.457Z,2.70
2018-06-01T04:48:28.964Z,2.93
2018-06-01T04:50:56.488Z,3.30
2018-06-01T04:53:24.766Z,3.10
2018-06-01T04:55:53.064Z,2.80
2018-06-01T04:58:21.530Z,3.70
2018-06-01T05:00:49.055Z,3.43
2018-06-01T05:03:16.557Z,3.90
2018-06-01T05:05:44.100Z,3.70
2018-06-01T05:08:11.612Z,3.67
2018-06-01T05:10:39.113Z,3.33
2018-06-01T05:13:06.636Z,3.50
2018-06-01T05:15:34.154Z,3.23
2018-06-01T05:18:01.683Z,3.40
2018-06-01T05:20:29.186Z,3.00
2018-06-01T05:22:56.736Z,3.63
2018-06-01T05:25:24.243Z,3.33
2018-06-01T05:27:52.524Z,3.47
2018-06-01T05:30:20.811Z,4.03
2018-06-01T05:32:48.307Z,3.30
2018-06-01T05:35:15.826Z,3.73
2018-06-01T05:37:43.335Z,3.87
2018-06-01T05:40:10.842Z,3.80
2018-06-01T05:42:38.366Z,2.83
2018-06-01T05:45:06.635Z,3.17
2018-06-01T05:47:36.606Z,3.20
2018-06-01T05:50:04.160Z,3.10
2018-06-01T05:52:31.924Z,4.00
2018-06-01T05:54:59.616Z,3.00
2018-06-01T05:57:27.965Z,3.00
2018-06-01T05:59:55.502Z,2.90
2018-06-01T06:02:23.008Z,2.63
2018-06-01T06:04:50.575Z,2.97
2018-06-01T06:07:20.548Z,3.57
2018-06-01T06:09:48.047Z,2.83
2018-06-01T06:12:15.595Z,2.87
2018-06-01T06:14:44.448Z,2.37
2018-06-01T06:17:12.322Z,2.87
2018-06-01T06:19:40.495Z,2.63
2018-06-01T06:22:09.484Z,2.83
2018-06-01T06:24:37.373Z,2.73
2018-06-01T06:27:04.891Z,2.90
2018-06-01T06:29:32.416Z,2.93
2018-06-01T06:32:00.719Z,2.73
2018-06-01T06:34:28.262Z,7.23
2018-06-01T06:36:55.798Z,22.90
2018-06-01T06:39:23.335Z,18.50
2018-06-01T06:41:50.848Z,28.77
2018-06-01T06:44:18.383Z,32.77
2018-06-01T06:46:46.839Z,27.80
2018-06-01T06:49:14.355Z,30.73
2018-06-01T06:51:41.895Z,23.03
2018-06-01T06:54:10.187Z,21.00
2018-06-01T06:56:37.735Z,18.00
2018-06-01T06:59:05.280Z,15.87
2018-06-01T07:01:33.573Z,16.17
2018-06-01T07:04:01.107Z,13.70
2018-06-01T07:06:30.324Z,13.97
2018-06-01T07:08:57.856Z,13.13
2018-06-01T07:11:26.128Z,13.07
2018-06-01T07:13:53.652Z,11.80
2018-06-01T07:16:21.150Z,11.20
2018-06-01T07:18:49.420Z,11.67
2018-06-01T07:21:16.946Z,12.33
2018-06-01T07:23:44.443Z,11.20
2018-06-01T07:26:12.740Z,11.17
2018-06-01T07:28:40.243Z,10.40
2018-06-01T07:31:07.775Z,9.23
2018-06-01T07:33:35.293Z,10.77
2018-06-01T07:36:03.596Z,10.50
2018-06-01T07:38:31.104Z,10.20
2018-06-01T07:40:59.372Z,8.77
2018-06-01T07:43:27.688Z,9.50
2018-06-01T07:45:55.193Z,9.33
2018-06-01T07:48:22.731Z,9.67
2018-06-01T07:50:50.291Z,9.53
2018-06-01T07:53:17.807Z,8.93
2018-06-01T07:55:46.068Z,9.53
2018-06-01T07:58:14.363Z,8.00
2018-06-01T08:00:42.672Z,8.30
2018-06-01T08:03:10.176Z,6.97
2018-06-01T08:05:37.712Z,7.63
2018-06-01T08:08:05.215Z,7.20
2018-06-01T08:10:32.747Z,7.47
2018-06-01T08:13:00.251Z,7.60
2018-06-01T08:15:27.794Z,8.03
2018-06-01T08:17:55.299Z,7.30
2018-06-01T08:20:23.760Z,7.03
2018-06-01T08:22:51.319Z,7.23
2018-06-01T08:25:18.823Z,6.50
2018-06-01T08:27:47.132Z,6.50
2018-06-01T08:30:14.630Z,7.17
2018-06-01T08:32:42.163Z,7.10
2018-06-01T08:35:10.659Z,6.30
2018-06-01T08:37:38.183Z,5.97
2018-06-01T08:40:05.712Z,6.53
2018-06-01T08:42:33.978Z,6.80
2018-06-01T08:45:02.272Z,6.10
2018-06-01T08:47:29.790Z,5.90
2018-06-01T08:49:58.832Z,6.77
2018-06-01T08:52:26.365Z,6.90
2018-06-01T08:54:54.655Z,5.80
2018-06-01T08:57:22.918Z,6.23
2018-06-01T08:59:51.186Z,5.20
2018-06-01T09:02:19.476Z,6.30
2018-06-01T09:04:47.760Z,5.63
2018-06-01T09:07:15.294Z,5.20
2018-06-01T09:09:43.578Z,6.10
2018-06-01T09:12:11.870Z,5.70
2018-06-01T09:14:39.379Z,6.17
2018-06-01T09:17:07.658Z,6.17
2018-06-01T09:19:35.180Z,5.13
2018-06-01T09:22:02.692Z,6.13
2018-06-01T09:24:30.984Z,5.80
2018-06-01T09:26:58.531Z,5.23
2018-06-01T09:29:28.787Z,5.13
2018-06-01T09:31:56.290Z,6.23
2018-06-01T09:34:23.854Z,5.70
2018-06-01T09:36:51.340Z,5.57
2018-06-01T09:39:18.832Z,5.47
2018-06-01T09:41:46.417Z,5.00
2018-06-01T09:44:13.889Z,5.87
2018-06-01T09:46:42.228Z,5.27
2018-06-01T09:49:09.698Z,5.27
2018-06-01T09:51:38.732Z,4.37
2018-06-01T09:54:06.243Z,5.80
2018-06-01T09:56:33.754Z,5.80
2018-06-01T09:59:01.279Z,5.30
2018-06-01T10:01:29.547Z,6.00
2018-06-01T10:03:57.071Z,4.83
2018-06-01T10:06:24.588Z,5.00
2018-06-01T10:08:52.885Z,4.67
2018-06-01T10:11:20.396Z,5.90
2018-06-01T10:13:49.894Z,4.80
2018-06-01T10:16:17.402Z,5.43
2018-06-01T10:18:44.907Z,4.40
2018-06-01T10:21:13.929Z,4.40
2018-06-01T10:23:42.200Z,4.93
2018-06-01T10:26:10.490Z,4.43
2018-06-01T10:28:38.976Z,4.90
2018-06-01T10:31:06.564Z,4.73
2018-06-01T10:33:34.080Z,4.73
2018-06-01T10:36:01.612Z,4.10
2018-06-01T10:38:29.132Z,5.00
2018-06-01T10:40:56.639Z,5.20
2018-06-01T10:43:24.939Z,4.50
2018-06-01T10:45:53.347Z,4.90
2018-06-01T10:48:22.871Z,4.50
2018-06-01T10:50:50.389Z,4.03
2018-06-01T10:53:17.883Z,5.00
2018-06-01T10:55:45.412Z,3.93
2018-06-01T10:58:12.925Z,4.03
2018-06-01T11:00:41.243Z,3.90
2018-06-01T11:03:08.764Z,4.77
2018-06-01T11:05:37.062Z,4.40
2018-06-01T11:08:04.563Z,4.57
2018-06-01T11:10:32.079Z,4.03
2018-06-01T11:12:59.600Z,4.53
2018-06-01T11:15:27.874Z,3.73
2018-06-01T11:17:56.174Z,5.23
2018-06-01T11:20:23.665Z,3.70
2018-06-01T11:22:51.561Z,4.40
2018-06-01T11:25:19.844Z,4.63
2018-06-01T11:27:47.359Z,3.93
2018-06-01T11:30:14.892Z,4.13
2018-06-01T11:32:42.395Z,4.20
2018-06-01T11:35:09.891Z,4.37
2018-06-01T11:37:37.480Z,3.50
2018-06-01T11:40:05.000Z,4.30
2018-06-01T11:42:33.307Z,3.37
2018-06-01T11:45:00.822Z,4.33
2018-06-01T11:47:29.087Z,3.47
2018-06-01T11:49:57.375Z,3.80
2018-06-01T11:52:25.639Z,4.07
2018-06-01T11:54:55.120Z,4.10
2018-06-01T11:57:22.689Z,4.00
2018-06-01T11:59:50.168Z,3.30
2018-06-01T12:02:20.442Z,3.40
2018-06-01T12:04:47.962Z,4.20
2018-06-01T12:07:15.491Z,3.53
2018-06-01T12:09:43.762Z,3.60
2018-06-01T12:12:14.762Z,3.80
2018-06-01T12:14:42.262Z,3.60
2018-06-01T12:17:09.760Z,4.43
2018-06-01T12:19:37.313Z,3.73
2018-06-01T12:22:04.828Z,4.53
2018-06-01T12:24:33.113Z,3.83
2018-06-01T12:27:00.607Z,3.80
2018-06-01T12:29:28.151Z,4.00
2018-06-01T12:31:55.661Z,4.20
2018-06-01T12:34:23.164Z,3.80
2018-06-01T12:36:51.455Z,4.90
2018-06-01T12:39:18.956Z,4.10
2018-06-01T12:41:46.488Z,3.90
2018-06-01T12:44:13.993Z,4.13
2018-06-01T12:46:41.526Z,3.50
2018-06-01T12:49:09.984Z,3.83
2018-06-01T12:51:37.488Z,3.20
2018-06-01T12:54:05.832Z,3.47
2018-06-01T12:56:33.305Z,3.47
2018-06-01T12:59:01.598Z,4.03
2018-06-01T13:01:29.861Z,3.63
2018-06-01T13:03:58.187Z,3.30
2018-06-01T13:06:25.694Z,2.83
2018-06-01T13:08:56.734Z,3.70
2018-06-01T13:11:24.229Z,3.87
2018-06-01T13:13:51.731Z,4.27
2018-06-01T13:16:19.247Z,3.63
2018-06-01T13:18:46.752Z,3.77
2018-06-01T13:21:14.270Z,3.90
2018-06-01T13:23:41.786Z,2.93
2018-06-01T13:26:09.334Z,3.37
2018-06-01T13:28:36.844Z,4.27
2018-06-01T13:31:04.373Z,4.03
2018-06-01T13:33:32.642Z,3.73
2018-06-01T13:36:00.915Z,3.80
2018-06-01T13:38:29.212Z,3.40
2018-06-01T13:40:56.716Z,3.10
2018-06-01T13:43:24.251Z,2.93
2018-06-01T13:45:51.768Z,3.40
2018-06-01T13:48:20.052Z,3.63
2018-06-01T13:50:47.556Z,3.70
2018-06-01T13:53:15.059Z,3.70
2018-06-01T13:55:43.351Z,3.67
2018-06-01T13:58:10.851Z,4.13
2018-06-01T14:00:38.415Z,4.10
2018-06-01T14:03:05.902Z,3.77
2018-06-01T14:05:34.183Z,3.63
2018-06-01T14:08:02.555Z,3.00
2018-06-01T14:10:30.858Z,2.93
2018-06-01T14:12:58.363Z,3.00
2018-06-01T14:15:27.361Z,3.90
2018-06-01T14:17:54.885Z,3.43
2018-06-01T14:20:22.375Z,3.47
2018-06-01T14:22:49.913Z,3.33
2018-06-01T14:25:17.416Z,3.30
2018-06-01T14:27:45.707Z,3.13
2018-06-01T14:30:14.171Z,3.43
2018-06-01T14:32:41.672Z,2.73
2018-06-01T14:35:09.233Z,3.90
2018-06-01T14:37:36.788Z,3.73
2018-06-01T14:40:04.308Z,2.93
2018-06-01T14:42:31.819Z,3.30
2018-06-01T14:45:00.848Z,3.17
2018-06-01T14:47:29.127Z,3.67
2018-06-01T14:49:56.645Z,3.20
2018-06-01T14:52:24.156Z,3.40
2018-06-01T14:54:52.628Z,2.90
2018-06-01T14:57:20.151Z,3.97
2018-06-01T14:59:47.649Z,3.03
2018-06-01T15:02:15.179Z,3.20
2018-06-01T15:04:43.518Z,3.53
2018-06-01T15:07:11.062Z,2.93
2018-06-01T15:09:38.577Z,2.90
2018-06-01T15:12:06.847Z,3.17
2018-06-01T15:14:36.092Z,3.37
2018-06-01T15:17:03.591Z,3.03
2018-06-01T15:19:31.896Z,3.63
2018-06-01T15:21:59.402Z,2.97
2018-06-01T15:24:26.931Z,3.80
2018-06-01T15:26:54.426Z,2.80
2018-06-01T15:29:21.948Z,3.40
2018-06-01T15:31:49.472Z,3.27
2018-06-01T15:34:17.739Z,2.60
2018-06-01T15:36:46.061Z,2.90
2018-06-01T15:39:13.578Z,2.53
2018-06-01T15:41:41.859Z,2.83
2018-06-01T15:44:10.308Z,2.70
2018-06-01T15:46:37.860Z,3.27
2018-06-01T15:49:06.203Z,3.00
2018-06-01T15:51:34.411Z,3.03
2018-06-01T15:54:03.881Z,2.90
2018-06-01T15:56:31.392Z,2.70
2018-06-01T15:58:59.688Z,3.33
2018-06-01T16:01:27.191Z,2.97
2018-06-01T16:03:54.724Z,3.20
2018-06-01T16:06:22.223Z,2.30
2018-06-01T16:08:51.680Z,3.03
2018-06-01T16:11:19.178Z,2.80
2018-06-01T16:13:46.691Z,3.87
2018-06-01T16:16:14.233Z,2.83
2018-06-01T16:18:42.707Z,2.60
2018-06-01T16:21:10.228Z,2.97
2018-06-01T16:23:37.735Z,2.27
2018-06-01T16:26:05.269Z,2.97
2018-06-01T16:28:33.545Z,2.60
2018-06-01T16:31:01.860Z,3.03
2018-06-01T16:33:29.363Z,2.97
2018-06-01T16:35:57.815Z,2.87
2018-06-01T16:38:25.356Z,2.60
2018-06-01T16:40:52.863Z,3.20
2018-06-01T16:43:21.176Z,2.80
2018-06-01T16:45:48.683Z,2.60
2018-06-01T16:48:16.225Z,2.57
2018-06-01T16:50:44.686Z,2.87
2018-06-01T16:53:12.197Z,3.17
2018-06-01T16:55:41.447Z,2.67
2018-06-01T16:58:08.952Z,2.90
2018-06-01T17:00:37.243Z,2.30
2018-06-01T17:03:04.748Z,3.10
2018-06-01T17:05:32.282Z,3.10
2018-06-01T17:07:59.831Z,2.87
2018-06-01T17:10:27.324Z,3.20
2018-06-01T17:12:54.921Z,2.70
2018-06-01T17:15:23.213Z,2.50
2018-06-01T17:17:50.753Z,2.70
2018-06-01T17:20:19.972Z,3.63
2018-06-01T17:22:47.499Z,3.10
2018-06-01T17:25:15.767Z,3.43
2018-06-01T17:27:44.075Z,2.90
2018-06-01T17:30:11.584Z,2.93
2018-06-01T17:32:39.090Z,3.07
2018-06-01T17:35:06.615Z,2.80
2018-06-01T17:37:34.912Z,2.50
2018-06-01T17:40:02.463Z,3.50
2018-06-01T17:42:30.731Z,2.50
2018-06-01T17:44:59.028Z,3.13
2018-06-01T17:47:26.578Z,2.57
2018-06-01T17:49:54.125Z,3.00
2018-06-01T17:52:22.405Z,3.00
2018-06-01T17:54:50.676Z,2.60
2018-06-01T17:57:19.923Z,3.13
2018-06-01T17:59:47.411Z,2.70
2018-06-01T18:02:14.939Z,2.50
2018-06-01T18:04:42.456Z,2.50
2018-06-01T18:07:09.991Z,2.83
2018-06-01T18:09:38.264Z,2.53
2018-06-01T18:12:07.463Z,2.47
2018-06-01T18:14:35.774Z,2.70
2018-06-01T18:17:04.242Z,2.23
2018-06-01T18:19:31.771Z,2.40
2018-06-01T18:21:59.276Z,2.53
2018-06-01T18:24:26.803Z,2.80
2018-06-01T18:26:56.033Z,2.90
2018-06-01T18:29:23.568Z,2.60
2018-06-01T18:31:51.104Z,2.70
2018-06-01T18:34:19.375Z,2.57
2018-06-01T18:36:47.670Z,2.70
2018-06-01T18:39:15.184Z,2.30
2018-06-01T18:41:42.701Z,2.33
2018-06-01T18:44:10.203Z,2.70
2018-06-01T18:46:37.728Z,2.90
2018-06-01T18:49:05.236Z,2.80
2018-06-01T18:51:33.509Z,2.10
2018-06-01T18:54:01.036Z,2.50
2018-06-01T18:56:28.550Z,2.50
2018-06-01T18:58:56.072Z,2.73
2018-06-01T19:01:23.603Z,2.40
2018-06-01T19:03:51.156Z,2.80
2018-06-01T19:06:18.678Z,2.43
2018-06-01T19:08:47.277Z,2.70
2018-06-01T19:11:14.828Z,2.80
2018-06-01T19:13:42.330Z,2.37
2018-06-01T19:16:09.859Z,2.97
2018-06-01T19:18:37.355Z,2.50
2018-06-01T19:21:04.955Z,2.50
2018-06-01T19:23:32.461Z,2.60
2018-06-01T19:25:59.987Z,2.30
2018-06-01T19:28:27.503Z,2.87
2018-06-01T19:30:55.773Z,3.20
2018-06-01T19:33:24.071Z,2.40
2018-06-01T19:35:51.572Z,2.77
2018-06-01T19:38:19.105Z,1.80
2018-06-01T19:40:46.626Z,1.93
2018-06-01T19:43:14.908Z,2.67
2018-06-01T19:45:43.172Z,2.60
2018-06-01T19:48:11.440Z,2.20
2018-06-01T19:50:38.983Z,2.30
2018-06-01T19:53:07.462Z,2.57
2018-06-01T19:55:34.990Z,2.50
2018-06-01T19:58:03.377Z,2.67
2018-06-01T20:00:30.968Z,2.37
2018-06-01T20:02:59.395Z,2.30
2018-06-01T20:05:27.056Z,1.90
2018-06-01T20:07:54.555Z,2.20
2018-06-01T20:10:22.847Z,2.40
2018-06-01T20:12:51.150Z,2.50
2018-06-01T20:15:18.678Z,2.43
2018-06-01T20:17:46.181Z,2.17
2018-06-01T20:20:13.708Z,2.70
2018-06-01T20:22:42.101Z,2.30
2018-06-01T20:25:09.651Z,2.30
2018-06-01T20:27:37.190Z,2.50
2018-06-01T20:30:05.485Z,2.60
2018-06-01T20:32:33.026Z,2.90
2018-06-01T20:35:01.315Z,2.70
2018-06-01T20:37:30.374Z,3.17
2018-06-01T20:39:57.872Z,2.73
2018-06-01T20:42:25.424Z,3.03
2018-06-01T20:44:53.717Z,2.60
2018-06-01T20:47:21.247Z,2.90
2018-06-01T20:49:49.520Z,3.07
2018-06-01T20:52:17.814Z,3.00
2018-06-01T20:54:45.345Z,3.47
2018-06-01T20:57:14.044Z,3.40
2018-06-01T20:59:44.304Z,3.43
2018-06-01T21:02:11.807Z,4.17
2018-06-01T21:04:40.099Z,3.17
2018-06-01T21:07:08.373Z,3.30
2018-06-01T21:09:36.694Z,3.30
2018-06-01T21:12:04.223Z,3.70
2018-06-01T21:14:31.724Z,3.73
2018-06-01T21:16:59.248Z,3.33
2018-06-01T21:19:26.749Z,2.90
2018-06-01T21:21:54.283Z,3.67
2018-06-01T21:24:21.786Z,3.33
2018-06-01T21:26:50.055Z,5.03
2018-06-01T21:29:17.578Z,3.60
2018-06-01T21:31:45.075Z,3.37
2018-06-01T21:34:15.325Z,4.40
2018-06-01T21:36:42.829Z,3.50
2018-06-01T21:39:10.354Z,3.60
2018-06-01T21:41:37.850Z,3.90
2018-06-01T21:44:05.377Z,3.70
2018-06-01T21:46:32.868Z,4.13
2018-06-01T21:49:00.371Z,3.27
2018-06-01T21:51:27.903Z,3.30
2018-06-01T21:53:55.407Z,3.90
2018-06-01T21:56:22.940Z,3.80
2018-06-01T21:58:50.442Z,3.30
2018-06-01T22:01:18.727Z,3.83
2018-06-01T22:03:46.247Z,3.80
2018-06-01T22:06:13.794Z,3.30
2018-06-01T22:08:41.327Z,3.23
2018-06-01T22:11:08.856Z,3.80
2018-06-01T22:13:36.358Z,3.60
2018-06-01T22:16:03.887Z,3.77
2018-06-01T22:18:32.172Z,3.87
2018-06-01T22:21:00.763Z,3.70
2018-06-01T22:23:28.312Z,3.23
2018-06-01T22:25:56.607Z,3.60
2018-06-01T22:28:24.116Z,3.47
2018-06-01T22:30:53.124Z,3.80
2018-06-01T22:33:21.413Z,3.37
2018-06-01T22:35:48.925Z,4.00
2018-06-01T22:38:18.396Z,3.63
2018-06-01T22:40:45.950Z,4.57
2018-06-01T22:43:13.483Z,3.50
2018-06-01T22:45:41.764Z,3.70
2018-06-01T22:48:10.031Z,3.60
2018-06-01T22:50:38.312Z,3.50
2018-06-01T22:53:07.536Z,3.73
2018-06-01T22:55:35.267Z,4.00
2018-06-01T22:58:03.025Z,3.70
2018-06-01T23:00:30.524Z,4.07
2018-06-01T23:02:58.061Z,3.93
2018-06-01T23:05:26.876Z,4.50
2018-06-01T23:07:54.444Z,4.13
2018-06-01T23:10:22.083Z,4.17
2018-06-01T23:12:50.607Z,4.17
2018-06-01T23:15:18.107Z,4.20
2018-06-01T23:17:45.636Z,4.30
2018-06-01T23:20:14.076Z,4.70
2018-06-01T23:22:43.513Z,3.40
2018-06-01T23:25:12.037Z,3.83
2018-06-01T23:27:39.799Z,4.67
2018-06-01T23:30:07.613Z,3.70
2018-06-01T23:32:36.190Z,4.23
2018-06-01T23:35:05.724Z,4.30
2018-06-01T23:37:33.998Z,4.80
2018-06-01T23:40:02.260Z,4.70
2018-06-01T23:42:30.544Z,4.00
2018-06-01T23:44:58.839Z,4.53
2018-06-01T23:47:26.416Z,5.07
2018-06-01T23:49:53.939Z,4.47
2018-06-01T23:52:22.232Z,4.20
2018-06-01T23:54:50.693Z,5.37
2018-06-01T23:57:18.986Z,6.63
2018-06-01T23:59:46.504Z,6.53
